createdAt,value
2022-11-14T00:00:30.683Z,102058.19
2022-11-14T00:03:05.883Z,102063.63
2022-11-14T00:05:40.693Z,102055.75
2022-11-14T00:08:15.812Z,102044.84
2022-11-14T00:10:48.257Z,102061.03
2022-11-14T00:13:20.936Z,102056.94
2022-11-14T00:15:55.391Z,102053.44
2022-11-14T00:18:26.336Z,102041.81
2022-11-14T00:20:57.090Z,102046.59
2022-11-14T00:23:27.095Z,102043.06
2022-11-14T00:25:57.133Z,102043.50
2022-11-14T00:28:26.059Z,102038.22
2022-11-14T00:30:55.379Z,102039.88
2022-11-14T00:33:26.350Z,102035.03
2022-11-14T00:35:57.368Z,102033.97
2022-11-14T00:38:26.937Z,102028.63
2022-11-14T00:40:56.505Z,102032.06
2022-11-14T00:43:30.714Z,102031.75
2022-11-14T00:45:59.804Z,102023.50
2022-11-14T00:48:33.984Z,102013.63
2022-11-14T00:51:03.072Z,102017.97
2022-11-14T00:53:33.319Z,102023.22
2022-11-14T00:56:03.230Z,102021.56
2022-11-14T00:58:33.213Z,102010.94
2022-11-14T01:01:02.811Z,102004.91
2022-11-14T01:03:42.119Z,102005.03
2022-11-14T01:06:16.021Z,102005.84
2022-11-14T01:08:46.344Z,101997.50
2022-11-14T01:11:21.909Z,101992.16
2022-11-14T01:13:52.220Z,101998.00
2022-11-14T01:16:23.666Z,101991.63
2022-11-14T01:18:55.986Z,101986.88
2022-11-14T01:21:27.120Z,101990.34
2022-11-14T01:23:57.424Z,101988.75
2022-11-14T01:26:27.336Z,101990.78
2022-11-14T01:28:56.413Z,101986.63
2022-11-14T01:31:27.315Z,101987.25
2022-11-14T01:34:00.357Z,101986.31
2022-11-14T01:36:29.371Z,101976.97
2022-11-14T01:38:58.180Z,101975.16
2022-11-14T01:41:29.649Z,101974.19
2022-11-14T01:43:58.607Z,101964.47
2022-11-14T01:46:32.741Z,101968.94
2022-11-14T01:49:13.558Z,101964.69
2022-11-14T01:51:49.450Z,101963.81
2022-11-14T01:54:26.564Z,101951.31
2022-11-14T01:57:01.717Z,101951.31
2022-11-14T01:59:37.821Z,101943.91
2022-11-14T02:02:18.316Z,101938.69
2022-11-14T02:04:55.100Z,101928.19
2022-11-14T02:07:28.780Z,101922.00
2022-11-14T02:09:59.811Z,101925.75
2022-11-14T02:12:28.874Z,101921.44
2022-11-14T02:15:02.804Z,101920.41
2022-11-14T02:17:34.697Z,101913.19
2022-11-14T02:20:20.416Z,101912.88
2022-11-14T02:22:51.026Z,101914.19
2022-11-14T02:25:22.493Z,101910.44
2022-11-14T02:27:53.685Z,101904.56
2022-11-14T02:30:25.790Z,101887.34
2022-11-14T02:33:10.595Z,101886.72
2022-11-14T02:35:42.804Z,101884.03
2022-11-14T02:38:11.940Z,101880.50
2022-11-14T02:40:40.946Z,101877.03
2022-11-14T02:43:10.588Z,101880.88
2022-11-14T02:45:39.628Z,101867.91
2022-11-14T02:48:09.914Z,101869.94
2022-11-14T02:50:40.634Z,101867.19
2022-11-14T02:53:10.785Z,101861.13
2022-11-14T02:55:39.851Z,101858.81
2022-11-14T02:58:08.717Z,101855.69
2022-11-14T03:00:53.365Z,101859.22
2022-11-14T03:03:26.652Z,101852.47
2022-11-14T03:06:01.440Z,101862.28
2022-11-14T03:08:31.353Z,101859.56
2022-11-14T03:11:06.308Z,101858.00
2022-11-14T03:13:36.220Z,101858.00
2022-11-14T03:16:10.017Z,101855.13
2022-11-14T03:18:39.932Z,101845.38
2022-11-14T03:21:14.433Z,101839.25
2022-11-14T03:23:44.651Z,101844.81
2022-11-14T03:26:20.013Z,101840.56
2022-11-14T03:28:49.139Z,101830.88
2022-11-14T03:31:18.338Z,101830.59
2022-11-14T03:33:49.533Z,101834.28
2022-11-14T03:36:20.133Z,101831.63
2022-11-14T03:39:02.452Z,101821.94
2022-11-14T03:41:32.282Z,101818.56
2022-11-14T03:44:01.278Z,101818.66
2022-11-14T03:46:30.700Z,101814.88
2022-11-14T03:48:59.705Z,101815.91
2022-11-14T03:51:28.766Z,101810.47
2022-11-14T03:53:59.412Z,101811.50
2022-11-14T03:56:30.139Z,101803.63
2022-11-14T03:58:59.472Z,101811.69
2022-11-14T04:01:32.062Z,101799.59
2022-11-14T04:04:00.607Z,101813.13
2022-11-14T04:06:29.558Z,101801.81
2022-11-14T04:09:01.365Z,101802.69
2022-11-14T04:11:32.837Z,101801.31
2022-11-14T04:14:01.813Z,101788.84
2022-11-14T04:16:31.178Z,101782.00
2022-11-14T04:19:01.220Z,101785.78
2022-11-14T04:21:30.232Z,101773.22
2022-11-14T04:24:05.952Z,101780.44
2022-11-14T04:26:38.989Z,101776.97
2022-11-14T04:29:08.428Z,101776.84
2022-11-14T04:31:38.699Z,101779.50
2022-11-14T04:34:07.892Z,101774.88
2022-11-14T04:36:36.977Z,101777.16
2022-11-14T04:39:07.831Z,101768.47
2022-11-14T04:41:37.181Z,101767.34
2022-11-14T04:44:11.251Z,101780.84
2022-11-14T04:46:40.645Z,101774.50
2022-11-14T04:49:09.791Z,101771.59
2022-11-14T04:51:38.879Z,101770.91
2022-11-14T04:54:10.076Z,101776.22
2022-11-14T04:56:42.644Z,101777.16
2022-11-14T04:59:14.712Z,101774.34
2022-11-14T05:01:54.867Z,101768.06
2022-11-14T05:04:24.335Z,101770.91
2022-11-14T05:06:53.640Z,101770.34
2022-11-14T05:09:24.344Z,101765.28
2022-11-14T05:11:53.601Z,101755.56
2022-11-14T05:14:25.005Z,101752.47
2022-11-14T05:16:56.981Z,101755.06
2022-11-14T05:19:26.868Z,101754.47
2022-11-14T05:21:59.376Z,101752.13
2022-11-14T05:24:30.185Z,101752.03
2022-11-14T05:27:00.372Z,101752.28
2022-11-14T05:29:29.562Z,101748.81
2022-11-14T05:31:59.536Z,101749.59
2022-11-14T05:34:31.044Z,101752.91
2022-11-14T05:36:59.832Z,101751.19
2022-11-14T05:39:30.235Z,101735.16
2022-11-14T05:41:58.886Z,101732.88
2022-11-14T05:44:27.880Z,101734.75
2022-11-14T05:46:59.910Z,101741.44
2022-11-14T05:49:28.928Z,101739.84
2022-11-14T05:51:57.989Z,101727.38
2022-11-14T05:54:27.036Z,101731.84
2022-11-14T05:56:57.468Z,101736.47
2022-11-14T05:59:26.618Z,101731.28
2022-11-14T06:01:58.821Z,101731.72
2022-11-14T06:04:29.872Z,101723.34
2022-11-14T06:07:01.440Z,101728.31
2022-11-14T06:09:33.080Z,101741.06
2022-11-14T06:12:06.440Z,101736.09
2022-11-14T06:14:35.802Z,101741.47
2022-11-14T06:17:05.076Z,101735.13
2022-11-14T06:19:36.014Z,101737.03
2022-11-14T06:22:05.955Z,101738.00
2022-11-14T06:24:36.052Z,101732.56
2022-11-14T06:27:06.518Z,101736.22
2022-11-14T06:29:38.126Z,101743.94
2022-11-14T06:32:08.198Z,101746.59
2022-11-14T06:34:41.201Z,101747.53
2022-11-14T06:37:10.287Z,101745.78
2022-11-14T06:39:39.270Z,101742.34
2022-11-14T06:42:09.883Z,101747.59
2022-11-14T06:44:44.480Z,101739.59
2022-11-14T06:47:13.594Z,101735.41
2022-11-14T06:49:42.583Z,101733.63
2022-11-14T06:52:11.808Z,101734.69
2022-11-14T06:54:41.073Z,101745.56
2022-11-14T06:57:12.003Z,101749.97
2022-11-14T06:59:41.714Z,101745.78
2022-11-14T07:02:20.499Z,101750.19
2022-11-14T07:04:51.087Z,101743.22
2022-11-14T07:07:20.076Z,101755.72
2022-11-14T07:09:49.491Z,101747.69
2022-11-14T07:12:19.899Z,101755.66
2022-11-14T07:14:52.258Z,101756.69
2022-11-14T07:17:24.946Z,101756.41
2022-11-14T07:19:56.961Z,101755.19
2022-11-14T07:22:25.874Z,101758.84
2022-11-14T07:24:55.191Z,101754.22
2022-11-14T07:27:25.723Z,101747.50
2022-11-14T07:29:55.075Z,101746.13
2022-11-14T07:32:26.399Z,101750.28
2022-11-14T07:35:00.805Z,101751.31
2022-11-14T07:37:31.462Z,101742.97
2022-11-14T07:40:00.523Z,101735.63
2022-11-14T07:42:32.336Z,101740.59
2022-11-14T07:45:01.885Z,101743.63
2022-11-14T07:47:30.784Z,101734.44
2022-11-14T07:50:00.083Z,101750.47
2022-11-14T07:52:33.875Z,101739.47
2022-11-14T07:55:03.390Z,101746.31
2022-11-14T07:57:41.891Z,101746.00
2022-11-14T08:00:17.296Z,101739.56
2022-11-14T08:02:48.429Z,101735.97
2022-11-14T08:05:17.659Z,101734.88
2022-11-14T08:07:46.875Z,101737.19
2022-11-14T08:10:16.340Z,101731.28
2022-11-14T08:12:56.261Z,101728.31
2022-11-14T08:15:34.439Z,101733.03
2022-11-14T08:18:03.802Z,101719.38
2022-11-14T08:20:32.758Z,101717.28
2022-11-14T08:23:14.646Z,101711.56
2022-11-14T08:25:44.159Z,101715.22
2022-11-14T08:28:14.995Z,101706.44
2022-11-14T08:30:44.327Z,101707.31
2022-11-14T08:33:13.341Z,101710.94
2022-11-14T08:35:45.977Z,101708.41
2022-11-14T08:38:14.746Z,101704.31
2022-11-14T08:40:46.281Z,101693.91
2022-11-14T08:43:17.410Z,101696.13
2022-11-14T08:45:46.514Z,101687.44
2022-11-14T08:48:16.821Z,101685.09
2022-11-14T08:50:49.432Z,101691.78
2022-11-14T08:53:18.224Z,101687.31
2022-11-14T08:55:49.607Z,101675.63
2022-11-14T08:58:20.239Z,101673.03
2022-11-14T09:00:49.596Z,101675.81
2022-11-14T09:03:18.671Z,101677.22
2022-11-14T09:05:53.395Z,101672.38
2022-11-14T09:08:22.845Z,101662.22
2022-11-14T09:10:52.847Z,101659.59
2022-11-14T09:13:24.448Z,101664.44
2022-11-14T09:15:53.947Z,101659.97
2022-11-14T09:18:24.001Z,101653.59
2022-11-14T09:20:55.136Z,101660.13
2022-11-14T09:23:25.921Z,101648.03
2022-11-14T09:25:57.301Z,101648.63
2022-11-14T09:28:29.777Z,101645.59
2022-11-14T09:31:03.250Z,101647.78
2022-11-14T09:33:32.544Z,101647.63
2022-11-14T09:36:03.471Z,101645.81
2022-11-14T09:38:38.252Z,101642.00
2022-11-14T09:41:26.363Z,101643.63
2022-11-14T09:44:45.455Z,101646.00
2022-11-14T09:47:22.087Z,101640.97
2022-11-14T09:49:56.088Z,101642.00
2022-11-14T09:52:38.155Z,101639.22
2022-11-14T09:55:21.026Z,101633.88
2022-11-14T09:57:52.289Z,101635.13
2022-11-14T10:00:26.109Z,101632.25
2022-11-14T10:03:16.505Z,101623.13
2022-11-14T10:06:10.406Z,101621.91
2022-11-14T10:09:08.108Z,101604.47
2022-11-14T10:11:42.685Z,101604.09
2022-11-14T10:15:14.887Z,101604.59
2022-11-14T10:18:08.471Z,101587.56
2022-11-14T10:20:49.923Z,101588.53
2022-11-14T10:23:38.681Z,101578.59
2022-11-14T10:26:19.299Z,101570.75
2022-11-14T10:29:12.341Z,101571.47
2022-11-14T10:31:55.362Z,101558.69
2022-11-14T10:34:36.409Z,101552.56
2022-11-14T10:37:19.457Z,101548.47
2022-11-14T10:39:56.634Z,101553.56
2022-11-14T10:42:34.251Z,101548.38
2022-11-14T10:45:13.170Z,101546.75
2022-11-14T10:47:52.791Z,101544.09
2022-11-14T10:50:31.816Z,101543.53
2022-11-14T10:53:08.928Z,101539.31
2022-11-14T10:56:02.562Z,101531.16
2022-11-14T10:58:30.424Z,101536.13
2022-11-14T11:01:39.631Z,101539.72
2022-11-14T11:04:28.684Z,101518.56
2022-11-14T11:07:39.263Z,101522.88
2022-11-14T11:10:38.330Z,101520.69
2022-11-14T11:13:10.463Z,101521.16
2022-11-14T11:15:44.003Z,101513.88
2022-11-14T11:18:33.045Z,101494.03
2022-11-14T11:21:10.680Z,101501.13
2022-11-14T11:23:52.272Z,101507.13
2022-11-14T11:26:29.695Z,101488.44
2022-11-14T11:29:19.421Z,101500.41
2022-11-14T11:31:54.459Z,101489.59
2022-11-14T11:34:28.517Z,101483.63
2022-11-14T11:37:05.948Z,101484.44
2022-11-14T11:39:44.279Z,101486.50
2022-11-14T11:42:24.326Z,101474.25
2022-11-14T11:45:01.872Z,101471.16
2022-11-14T11:47:38.049Z,101465.75
2022-11-14T11:50:17.682Z,101455.66
2022-11-14T11:53:02.690Z,101448.81
2022-11-14T11:55:40.537Z,101448.19
2022-11-14T11:58:22.461Z,101446.97
2022-11-14T12:00:55.622Z,101452.88
2022-11-14T12:03:30.029Z,101455.91
2022-11-14T12:06:16.644Z,101441.28
2022-11-14T12:09:02.934Z,101446.66
2022-11-14T12:11:39.414Z,101440.53
2022-11-14T12:14:50.521Z,101442.34
2022-11-14T12:17:56.694Z,101446.84
2022-11-14T12:21:07.647Z,101444.06
2022-11-14T12:24:43.231Z,101436.28
2022-11-14T12:27:30.452Z,101427.94
2022-11-14T12:30:17.736Z,101423.22
2022-11-14T12:32:52.578Z,101421.00
2022-11-14T12:35:29.614Z,101428.38
2022-11-14T12:38:06.189Z,101413.97
2022-11-14T12:40:40.333Z,101407.31
2022-11-14T12:43:41.845Z,101402.81
2022-11-14T12:46:13.328Z,101400.22
2022-11-14T12:48:45.062Z,101391.44
2022-11-14T12:51:51.227Z,101385.63
2022-11-14T12:54:46.513Z,101372.16
2022-11-14T12:57:49.823Z,101390.91
2022-11-14T13:00:21.272Z,101385.78
2022-11-14T13:03:28.981Z,101388.66
2022-11-14T13:06:05.811Z,101379.78
2022-11-14T13:09:24.972Z,101384.88
2022-11-14T13:12:29.173Z,101385.72
2022-11-14T13:15:37.177Z,101382.91
2022-11-14T13:18:41.918Z,101375.66
2022-11-14T13:21:45.429Z,101384.66
2022-11-14T13:24:21.074Z,101370.16
2022-11-14T13:26:55.207Z,101373.22
2022-11-14T13:29:54.505Z,101377.06
2022-11-14T13:33:06.109Z,101353.81
2022-11-14T13:36:04.845Z,101367.16
2022-11-14T13:39:07.436Z,101364.66
2022-11-14T13:42:18.250Z,101367.94
2022-11-14T13:45:45.475Z,101360.22
2022-11-14T13:48:48.685Z,101357.84
2022-11-14T13:54:18.576Z,101366.44
2022-11-14T13:57:05.265Z,101384.63
2022-11-14T14:00:07.147Z,101388.38
2022-11-14T14:03:16.236Z,101384.06
2022-11-14T14:06:12.208Z,101384.22
2022-11-14T14:09:14.312Z,101377.56
2022-11-14T14:12:03.540Z,101378.88
2022-11-14T14:15:07.141Z,101384.72
2022-11-14T14:17:55.355Z,101377.63
2022-11-14T14:20:37.929Z,101378.03
2022-11-14T14:23:29.542Z,101380.78
2022-11-14T14:26:15.840Z,101377.06
2022-11-14T14:29:03.596Z,101369.88
2022-11-14T14:31:40.024Z,101372.19
2022-11-14T14:34:25.661Z,101368.84
2022-11-14T14:36:59.587Z,101367.84
2022-11-14T14:39:30.996Z,101364.91
2022-11-14T14:42:02.527Z,101364.31
2022-11-14T14:44:43.845Z,101374.19
2022-11-14T14:47:19.370Z,101365.94
2022-11-14T14:49:49.991Z,101369.16
2022-11-14T14:52:23.514Z,101372.38
2022-11-14T14:54:57.939Z,101362.41
2022-11-14T14:57:29.987Z,101357.75
2022-11-14T15:00:07.323Z,101360.78
2022-11-14T15:02:37.853Z,101369.66
2022-11-14T15:05:08.545Z,101354.16
2022-11-14T15:07:41.515Z,101361.72
2022-11-14T15:10:23.824Z,101357.94
2022-11-14T15:12:58.224Z,101346.59
2022-11-14T15:15:29.144Z,101346.41
2022-11-14T15:18:02.759Z,101334.16
2022-11-14T15:20:32.316Z,101333.47
2022-11-14T15:23:07.935Z,101338.03
2022-11-14T15:25:39.880Z,101339.56
2022-11-14T15:28:21.469Z,101342.28
2022-11-14T15:31:05.247Z,101344.56
2022-11-14T15:33:36.836Z,101347.50
2022-11-14T15:36:14.666Z,101348.91
2022-11-14T15:39:02.198Z,101345.00
2022-11-14T15:41:33.992Z,101344.47
2022-11-14T15:44:05.872Z,101345.47
2022-11-14T15:46:48.664Z,101342.06
2022-11-14T15:49:32.962Z,101343.94
2022-11-14T15:52:04.630Z,101352.41
2022-11-14T15:54:35.443Z,101353.50
2022-11-14T15:57:18.001Z,101363.53
2022-11-14T15:59:48.131Z,101360.84
2022-11-14T16:02:22.048Z,101361.25
2022-11-14T16:04:53.678Z,101354.59
2022-11-14T16:07:27.240Z,101353.19
2022-11-14T16:09:56.362Z,101354.19
2022-11-14T16:12:25.663Z,101357.09
2022-11-14T16:14:58.864Z,101351.34
2022-11-14T16:17:28.502Z,101363.88
2022-11-14T16:20:01.287Z,101359.72
2022-11-14T16:22:34.227Z,101357.78
2022-11-14T16:25:03.480Z,101367.81
2022-11-14T16:27:33.563Z,101365.94
2022-11-14T16:30:04.694Z,101369.25
2022-11-14T16:32:33.755Z,101359.13
2022-11-14T16:35:08.821Z,101363.19
2022-11-14T16:37:38.436Z,101360.91
2022-11-14T16:40:14.976Z,101363.34
2022-11-14T16:42:46.420Z,101361.34
2022-11-14T16:45:17.057Z,101352.44
2022-11-14T16:47:48.900Z,101360.06
2022-11-14T16:50:19.403Z,101352.00
2022-11-14T16:52:49.087Z,101350.41
2022-11-14T16:55:18.311Z,101350.94
2022-11-14T16:57:47.335Z,101352.16
2022-11-14T17:00:18.836Z,101344.59
2022-11-14T17:02:48.246Z,101339.06
2022-11-14T17:05:17.661Z,101347.16
2022-11-14T17:07:48.381Z,101354.53
2022-11-14T17:10:17.385Z,101350.91
2022-11-14T17:12:46.273Z,101346.09
2022-11-14T17:15:17.267Z,101346.75
2022-11-14T17:17:50.471Z,101345.09
2022-11-14T17:20:19.657Z,101339.69
2022-11-14T17:22:48.538Z,101343.38
2022-11-14T17:25:20.709Z,101346.91
2022-11-14T17:27:50.101Z,101347.16
2022-11-14T17:30:22.048Z,101341.97
2022-11-14T17:32:56.683Z,101345.97
2022-11-14T17:35:25.666Z,101343.53
2022-11-14T17:38:00.086Z,101345.38
2022-11-14T17:40:31.004Z,101348.94
2022-11-14T17:42:59.985Z,101342.66
2022-11-14T17:45:30.691Z,101337.94
2022-11-14T17:47:59.500Z,101347.09
2022-11-14T17:50:33.202Z,101353.66
2022-11-14T17:53:06.627Z,101352.06
2022-11-14T17:55:35.780Z,101348.00
2022-11-14T17:58:04.754Z,101346.69
2022-11-14T18:00:35.611Z,101353.41
2022-11-14T18:03:04.865Z,101355.56
2022-11-14T18:05:34.834Z,101350.59
2022-11-14T18:08:04.182Z,101358.81
2022-11-14T18:10:35.001Z,101344.72
2022-11-14T18:13:05.367Z,101342.44
2022-11-14T18:15:39.163Z,101345.03
2022-11-14T18:18:09.139Z,101331.53
2022-11-14T18:20:42.539Z,101328.31
2022-11-14T18:23:14.451Z,101324.22
2022-11-14T18:25:44.018Z,101327.44
2022-11-14T18:28:12.917Z,101321.16
2022-11-14T18:30:56.089Z,101323.66
2022-11-14T18:33:25.214Z,101330.72
2022-11-14T18:36:01.872Z,101332.13
2022-11-14T18:38:36.902Z,101330.81
2022-11-14T18:41:12.001Z,101329.06
2022-11-14T18:43:41.123Z,101328.59
2022-11-14T18:46:16.777Z,101319.56
2022-11-14T18:48:48.455Z,101323.03
2022-11-14T18:51:22.267Z,101327.44
2022-11-14T18:53:51.920Z,101326.66
2022-11-14T18:56:25.048Z,101326.31
2022-11-14T18:58:58.810Z,101321.44
2022-11-14T19:01:32.343Z,101321.56
2022-11-14T19:04:03.944Z,101320.13
2022-11-14T19:06:33.912Z,101317.72
2022-11-14T19:09:11.046Z,101317.47
2022-11-14T19:11:58.910Z,101315.94
2022-11-14T19:14:28.027Z,101308.56
2022-11-14T19:16:59.731Z,101293.72
2022-11-14T19:19:28.709Z,101294.88
2022-11-14T19:21:59.060Z,101288.97
2022-11-14T19:24:28.702Z,101283.78
2022-11-14T19:26:58.156Z,101288.47
2022-11-14T19:29:27.187Z,101287.50
2022-11-14T19:31:57.816Z,101298.09
2022-11-14T19:34:27.447Z,101282.25
2022-11-14T19:37:01.046Z,101288.81
2022-11-14T19:39:30.572Z,101285.06
2022-11-14T19:41:59.915Z,101282.66
2022-11-14T19:44:29.857Z,101278.47
2022-11-14T19:47:01.529Z,101287.34
2022-11-14T19:49:31.756Z,101274.16
2022-11-14T19:52:00.677Z,101279.78
2022-11-14T19:54:29.759Z,101274.78
2022-11-14T19:56:59.497Z,101281.94
2022-11-14T19:59:29.830Z,101277.06
2022-11-14T20:02:00.518Z,101283.91
2022-11-14T20:04:34.263Z,101270.13
2022-11-14T20:07:08.991Z,101270.22
2022-11-14T20:09:38.554Z,101277.50
2022-11-14T20:12:08.355Z,101271.69
2022-11-14T20:14:37.605Z,101274.41
2022-11-14T20:17:11.279Z,101273.59
2022-11-14T20:19:40.364Z,101265.16
2022-11-14T20:22:10.703Z,101265.28
2022-11-14T20:24:39.607Z,101255.31
2022-11-14T20:27:10.269Z,101255.41
2022-11-14T20:29:43.097Z,101252.44
2022-11-14T20:32:19.007Z,101252.94
2022-11-14T20:34:50.006Z,101248.56
2022-11-14T20:37:22.435Z,101252.25
2022-11-14T20:39:51.796Z,101251.53
2022-11-14T20:42:23.344Z,101241.72
2022-11-14T20:44:55.004Z,101240.13
2022-11-14T20:47:27.971Z,101229.66
2022-11-14T20:49:59.136Z,101228.78
2022-11-14T20:52:33.715Z,101230.25
2022-11-14T20:55:06.175Z,101224.34
2022-11-14T20:57:44.883Z,101225.06
2022-11-14T21:00:21.416Z,101215.38
2022-11-14T21:02:54.235Z,101212.66
2022-11-14T21:05:26.186Z,101216.59
2022-11-14T21:07:55.297Z,101207.13
2022-11-14T21:10:41.967Z,101211.28
2022-11-14T21:13:28.427Z,101200.69
2022-11-14T21:15:59.821Z,101197.25
2022-11-14T21:18:30.733Z,101199.41
2022-11-14T21:21:05.998Z,101196.91
2022-11-14T21:23:36.542Z,101207.16
2022-11-14T21:26:13.884Z,101200.69
2022-11-14T21:28:47.023Z,101200.69
2022-11-14T21:31:21.260Z,101194.00
2022-11-14T21:33:58.269Z,101192.56
2022-11-14T21:36:44.352Z,101193.28
2022-11-14T21:39:18.208Z,101181.59
2022-11-14T21:41:51.300Z,101185.59
2022-11-14T21:44:21.709Z,101178.53
2022-11-14T21:46:51.773Z,101183.53
2022-11-14T21:49:23.603Z,101184.25
2022-11-14T21:51:56.396Z,101185.44
2022-11-14T21:54:29.740Z,101184.06
2022-11-14T21:56:59.183Z,101191.94
2022-11-14T21:59:29.297Z,101191.94
2022-11-14T22:02:18.946Z,101198.31
2022-11-14T22:04:51.223Z,101194.06
2022-11-14T22:07:20.196Z,101199.66
2022-11-14T22:09:53.137Z,101198.03
2022-11-14T22:12:22.426Z,101203.75
2022-11-14T22:14:52.012Z,101199.75
2022-11-14T22:17:21.307Z,101201.09
2022-11-14T22:19:51.590Z,101196.38
2022-11-14T22:22:22.370Z,101190.22
2022-11-14T22:24:52.061Z,101190.03
2022-11-14T22:27:21.208Z,101191.81
2022-11-14T22:29:50.700Z,101179.63
2022-11-14T22:32:19.755Z,101181.06
2022-11-14T22:34:48.662Z,101186.50
2022-11-14T22:37:20.009Z,101178.75
2022-11-14T22:39:49.232Z,101175.91
2022-11-14T22:42:23.449Z,101180.44
2022-11-14T22:44:52.343Z,101168.84
2022-11-14T22:47:21.391Z,101161.81
2022-11-14T22:49:50.921Z,101169.66
2022-11-14T22:52:21.763Z,101169.13
2022-11-14T22:54:51.908Z,101163.81
2022-11-14T22:57:25.622Z,101162.25
2022-11-14T22:59:54.667Z,101162.03
2022-11-14T23:02:23.719Z,101154.94
2022-11-14T23:04:53.324Z,101147.63
2022-11-14T23:07:24.714Z,101152.81
2022-11-14T23:09:54.035Z,101140.19
2022-11-14T23:12:23.241Z,101147.88
2022-11-14T23:14:54.001Z,101143.28
2022-11-14T23:17:23.305Z,101128.22
2022-11-14T23:19:52.459Z,101122.53
2022-11-14T23:22:23.219Z,101130.38
2022-11-14T23:24:52.015Z,101122.53
2022-11-14T23:27:21.344Z,101131.41
2022-11-14T23:29:50.525Z,101124.31
2022-11-14T23:32:19.844Z,101125.28
2022-11-14T23:34:50.253Z,101127.03
2022-11-14T23:37:19.523Z,101125.56
2022-11-14T23:39:50.631Z,101116.41
2022-11-14T23:42:19.749Z,101114.84
2022-11-14T23:44:48.722Z,101118.25
2022-11-14T23:47:18.270Z,101110.31
2022-11-14T23:49:47.358Z,101103.34
2022-11-14T23:52:16.329Z,101112.25
2022-11-14T23:54:45.659Z,101104.34
2022-11-14T23:57:16.715Z,101110.72
2022-11-14T23:59:46.042Z,101105.50
